Time;durP1;ratioP1;P1;durP2;ratioP2;P2;SDS_P1;SDS_P2;PMS_P1;PMS_P2;Temp;Humidity;BMP_temperature;BMP_pressure;BME280_temperature;BME280_humidity;BME280_pressure;Samples;Min_cycle;Max_cycle;Signal;HPM_P1;HPM_P2
2023/09/25 00:01:51;;;;;;;4.23;1.70;;;;;;;-145.18;100.00;46652.59;5007220;28;20544;-64
2023/09/25 00:04:17;;;;;;;6.93;2.47;;;;;;;-145.18;100.00;46654.53;5011400;28;20042;-64
2023/09/25 00:06:42;;;;;;;9.33;2.53;;;;;;;-145.18;100.00;46656.50;5012765;28;20037;-64
2023/09/25 00:09:08;;;;;;;3.10;1.87;;;;;;;-145.18;100.00;46654.53;5011362;28;20129;-64
2023/09/25 00:11:33;;;;;;;3.07;1.80;;;;;;;-145.18;100.00;46654.53;5013191;28;20029;-64
2023/09/25 00:13:59;;;;;;;8.70;2.00;;;;;;;-145.18;100.00;46648.69;5010471;28;20430;-65
2023/09/25 00:16:24;;;;;;;4.03;1.60;;;;;;;-145.18;100.00;46650.63;5013250;28;20132;-64
2023/09/25 00:18:50;;;;;;;3.83;2.10;;;;;;;-145.18;100.00;46652.59;5010398;28;20033;-64
2023/09/25 00:21:16;;;;;;;3.67;2.10;;;;;;;-145.18;100.00;46654.53;5010955;28;20033;-64
2023/09/25 00:23:41;;;;;;;3.37;1.70;;;;;;;-145.18;100.00;46650.63;5011295;28;20057;-64
2023/09/25 00:26:07;;;;;;;3.33;1.80;;;;;;;-145.18;100.00;46654.53;5012425;28;20034;-65
2023/09/25 00:28:33;;;;;;;5.87;2.10;;;;;;;-145.18;100.00;46652.59;5012467;28;20497;-64
2023/09/25 00:30:59;;;;;;;3.57;1.93;;;;;;;-145.18;100.00;46652.59;5011466;28;20046;-64
2023/09/25 00:33:24;;;;;;;5.10;2.80;;;;;;;-145.18;100.00;46644.78;5012615;28;20111;-64
2023/09/25 00:35:49;;;;;;;4.83;2.10;;;;;;;-145.18;100.00;46648.69;5012688;28;20482;-61
2023/09/25 00:38:15;;;;;;;4.20;1.97;;;;;;;-145.18;100.00;46646.72;5012762;28;20347;-60
2023/09/25 00:40:40;;;;;;;2.03;1.70;;;;;;;-145.18;100.00;46648.69;5011014;28;20418;-60
2023/09/25 00:43:06;;;;;;;3.07;1.57;;;;;;;-145.18;100.00;46648.69;5008097;28;20049;-60
2023/09/25 00:45:37;;;;;;;4.93;1.83;;;;;;;-145.18;100.00;46648.69;5008896;28;20026;-60
2023/09/25 00:48:04;;;;;;;5.03;1.97;;;;;;;-145.18;100.00;46642.81;5012602;28;20030;-60
2023/09/25 00:50:31;;;;;;;5.67;2.17;;;;;;;-145.18;100.00;46640.88;5012653;28;20034;-60
2023/09/25 00:53:01;;;;;;;6.03;2.70;;;;;;;-145.18;100.00;46642.81;5012219;28;20038;-60
2023/09/25 00:55:27;;;;;;;7.13;2.50;;;;;;;-145.18;100.00;46640.88;5007501;28;20580;-60
2023/09/25 00:57:53;;;;;;;5.07;2.10;;;;;;;-145.18;100.00;46648.69;5012101;28;20062;-60
2023/09/25 01:00:18;;;;;;;3.33;2.00;;;;;;;-145.18;100.00;46636.94;5011480;28;20080;-60
2023/09/25 01:02:43;;;;;;;7.47;2.50;;;;;;;-145.18;100.00;46644.78;5011097;28;20371;-60
2023/09/25 01:05:10;;;;;;;12.10;2.30;;;;;;;-145.18;100.00;46644.78;5007539;28;20386;-60
2023/09/25 01:07:36;;;;;;;3.67;1.90;;;;;;;-145.18;100.00;46642.81;5007601;28;20034;-60
2023/09/25 01:10:13;;;;;;;3.20;1.93;;;;;;;-145.18;100.00;46644.78;5012227;28;20040;-60
2023/09/25 01:12:38;;;;;;;4.13;1.83;;;;;;;-145.18;100.00;46644.78;5011678;28;20029;-60
2023/09/25 01:15:05;;;;;;;4.20;2.03;;;;;;;-145.18;100.00;46640.88;5011952;28;20026;-60
2023/09/25 01:17:31;;;;;;;4.83;2.10;;;;;;;-145.18;100.00;46644.78;5010334;28;20540;-62
2023/09/25 01:19:57;;;;;;;5.03;2.17;;;;;;;-145.18;100.00;46638.91;5009671;28;20022;-62
2023/09/25 01:22:22;;;;;;;4.97;2.47;;;;;;;-145.18;100.00;46640.88;5011945;28;20049;-62
2023/09/25 01:24:48;;;;;;;3.33;1.97;;;;;;;-145.18;100.00;46648.69;5011481;28;20030;-62
2023/09/25 01:27:13;;;;;;;4.53;1.80;;;;;;;-145.18;100.00;46640.88;5008466;28;20034;-62
2023/09/25 01:29:38;;;;;;;8.47;2.57;;;;;;;-145.18;100.00;46644.78;5011793;28;20034;-62
2023/09/25 01:32:04;;;;;;;5.67;2.27;;;;;;;-145.18;100.00;46642.81;5001919;28;20068;-62
2023/09/25 01:34:31;;;;;;;5.20;2.10;;;;;;;-145.18;100.00;46642.81;5011589;28;20048;-62
2023/09/25 01:36:56;;;;;;;4.53;2.03;;;;;;;-145.18;100.00;46642.81;5011601;28;20080;-62
2023/09/25 01:39:22;;;;;;;5.00;1.90;;;;;;;-145.18;100.00;46644.78;5011184;28;20045;-62
2023/09/25 01:41:47;;;;;;;4.87;2.40;;;;;;;-145.18;100.00;46640.88;5011439;28;20395;-62
2023/09/25 01:44:12;;;;;;;3.90;2.13;;;;;;;-145.18;100.00;46638.91;5009332;28;20069;-62
2023/09/25 01:46:40;;;;;;;4.40;2.60;;;;;;;-145.18;100.00;46640.88;5010122;28;20026;-62
2023/09/25 01:49:07;;;;;;;5.53;2.10;;;;;;;-145.18;100.00;46638.91;5011795;28;20033;-62
2023/09/25 01:51:32;;;;;;;5.80;3.40;;;;;;;-145.18;100.00;46640.88;5009803;28;20041;-62
2023/09/25 01:53:58;;;;;;;4.67;2.40;;;;;;;-145.18;100.00;46638.91;5010629;28;20112;-62
2023/09/25 01:56:23;;;;;;;3.53;2.10;;;;;;;-145.18;100.00;46640.88;5009329;28;20121;-62
2023/09/25 01:58:48;;;;;;;5.37;2.60;;;;;;;-145.18;100.00;46640.88;4989171;28;20032;-62
2023/09/25 02:01:14;;;;;;;5.23;2.37;;;;;;;-145.18;100.00;46644.78;5009720;28;20470;-62
2023/09/25 02:03:41;;;;;;;16.20;2.50;;;;;;;-145.18;100.00;46642.81;5011629;28;20096;-62
2023/09/25 02:06:07;;;;;;;4.57;2.33;;;;;;;-145.18;100.00;46638.91;5001298;28;20038;-62
2023/09/25 02:08:32;;;;;;;4.97;2.30;;;;;;;-145.18;100.00;46638.91;5004577;28;20036;-62
2023/09/25 02:10:58;;;;;;;8.17;2.63;;;;;;;-145.18;100.00;46640.88;5010007;28;20034;-62
2023/09/25 02:13:24;;;;;;;6.40;2.30;;;;;;;-145.18;100.00;46638.91;5011517;28;20080;-62
2023/09/25 02:15:49;;;;;;;3.70;2.40;;;;;;;-145.18;100.00;46642.81;5011409;28;20142;-62
2023/09/25 02:18:15;;;;;;;6.30;2.70;;;;;;;-145.18;100.00;46640.88;5010615;28;20041;-62
2023/09/25 02:20:40;;;;;;;6.70;2.40;;;;;;;-145.18;100.00;46638.91;5010944;28;20029;-62
2023/09/25 02:23:06;;;;;;;4.80;2.70;;;;;;;-145.18;100.00;46638.91;5010408;28;20034;-62
2023/09/25 02:25:31;;;;;;;4.27;2.57;;;;;;;-145.18;100.00;46640.88;5004356;28;20224;-62
2023/09/25 02:27:57;;;;;;;4.43;2.50;;;;;;;-145.18;100.00;46644.78;5011283;28;20037;-62
2023/09/25 02:30:22;;;;;;;7.77;2.90;;;;;;;-145.18;100.00;46644.78;5009141;28;20042;-62
2023/09/25 02:32:48;;;;;;;6.20;2.57;;;;;;;-145.18;100.00;46642.81;5011081;28;20127;-62
2023/09/25 02:35:13;;;;;;;5.97;3.00;;;;;;;-145.18;100.00;46640.88;5010936;28;20117;-62
2023/09/25 02:37:40;;;;;;;7.47;2.23;;;;;;;-145.18;100.00;46638.91;5012977;28;20053;-62
2023/09/25 02:40:07;;;;;;;6.00;2.70;;;;;;;-145.18;100.00;46642.81;5010148;28;20482;-62
2023/09/25 02:42:32;;;;;;;10.03;2.90;;;;;;;-145.18;100.00;46642.81;4999617;28;20026;-62
2023/09/25 02:44:58;;;;;;;3.93;2.17;;;;;;;-145.18;100.00;46642.81;5014609;28;20109;-62
2023/09/25 02:47:23;;;;;;;6.30;2.60;;;;;;;-145.18;100.00;46640.88;5013755;28;20084;-62
2023/09/25 02:49:49;;;;;;;4.87;2.40;;;;;;;-145.18;100.00;46648.69;5014761;28;20026;-62
2023/09/25 02:52:14;;;;;;;3.53;2.30;;;;;;;-145.18;100.00;46646.72;5009728;28;20037;-62
2023/09/25 02:54:40;;;;;;;5.30;2.73;;;;;;;-145.18;100.00;46644.78;5011271;28;20088;-62
2023/09/25 02:57:05;;;;;;;6.30;2.70;;;;;;;-145.18;100.00;46642.81;5013323;28;20030;-66
2023/09/25 02:59:30;;;;;;;3.87;2.17;;;;;;;-145.18;100.00;46648.69;5014329;28;20022;-66
2023/09/25 03:01:56;;;;;;;8.40;3.13;;;;;;;-145.18;100.00;46648.69;5013731;28;20034;-66
2023/09/25 03:04:21;;;;;;;5.37;3.17;;;;;;;-145.18;100.00;46642.81;5014279;28;20053;-66
2023/09/25 03:06:47;;;;;;;4.53;2.93;;;;;;;-145.18;100.00;46644.78;5006826;28;20414;-66
2023/09/25 03:09:12;;;;;;;7.97;3.17;;;;;;;-145.18;100.00;46644.78;5013912;28;20414;-66
2023/09/25 03:11:38;;;;;;;8.63;4.13;;;;;;;-145.18;100.00;46642.81;5002839;28;20126;-66
2023/09/25 03:14:03;;;;;;;8.07;2.40;;;;;;;-145.18;100.00;46644.78;5011691;28;20570;-67
2023/09/25 03:16:29;;;;;;;8.13;2.30;;;;;;;-145.18;100.00;46640.88;5014011;28;20449;-66
2023/09/25 03:18:55;;;;;;;4.53;2.23;;;;;;;-145.18;100.00;46638.91;5010557;28;20026;-66
2023/09/25 03:21:20;;;;;;;4.10;2.40;;;;;;;-145.18;100.00;46640.88;5014057;28;20628;-66
2023/09/25 03:23:45;;;;;;;7.13;2.40;;;;;;;-145.18;100.00;46642.81;5009993;28;20036;-66
2023/09/25 03:26:15;;;;;;;5.37;2.50;;;;;;;-145.18;100.00;46644.78;5014104;28;20084;-66
2023/09/25 03:28:41;;;;;;;4.93;2.40;;;;;;;-145.18;100.00;46642.81;5012079;28;20029;-66
2023/09/25 03:31:07;;;;;;;4.90;2.63;;;;;;;-145.18;100.00;46648.69;5012901;28;20054;-66
2023/09/25 03:33:32;;;;;;;4.97;2.43;;;;;;;-145.18;100.00;46648.69;5013707;28;20108;-66
2023/09/25 03:35:57;;;;;;;3.80;2.67;;;;;;;-145.18;100.00;46646.72;5010186;28;20041;-66
2023/09/25 03:38:23;;;;;;;7.23;2.83;;;;;;;-145.18;100.00;46650.63;5011857;28;20461;-66
2023/09/25 03:40:49;;;;;;;4.30;2.40;;;;;;;-145.18;100.00;46644.78;5013539;28;20030;-66
2023/09/25 03:43:14;;;;;;;4.83;2.40;;;;;;;-145.18;100.00;46646.72;5011444;28;20042;-66
2023/09/25 03:45:39;;;;;;;4.47;2.23;;;;;;;-145.18;100.00;46650.63;5013336;28;20036;-66
2023/09/25 03:48:05;;;;;;;5.37;2.73;;;;;;;-145.18;100.00;46648.69;5011297;28;20045;-66
2023/09/25 03:50:31;;;;;;;3.80;2.10;;;;;;;-145.18;100.00;46650.63;5013342;28;20034;-66
2023/09/25 03:52:59;;;;;;;4.07;2.60;;;;;;;-145.18;100.00;46648.69;5010162;28;20065;-66
2023/09/25 03:55:25;;;;;;;6.50;2.57;;;;;;;-145.18;100.00;46652.59;5005318;28;20481;-66
2023/09/25 03:57:50;;;;;;;4.50;2.77;;;;;;;-145.18;100.00;46650.63;5011549;28;20121;-66
2023/09/25 04:00:16;;;;;;;6.17;2.50;;;;;;;-145.18;100.00;46650.63;5010515;28;20041;-66
2023/09/25 04:02:42;;;;;;;8.17;2.50;;;;;;;-145.18;100.00;46644.78;5011914;28;20113;-66
2023/09/25 04:05:08;;;;;;;5.17;2.60;;;;;;;-145.18;100.00;46644.78;5013110;28;20037;-62
2023/09/25 04:07:34;;;;;;;5.67;2.83;;;;;;;-145.18;100.00;46650.63;5010845;28;20482;-62
2023/09/25 04:09:59;;;;;;;4.87;2.17;;;;;;;-145.18;100.00;46652.59;5011554;28;20087;-62
2023/09/25 04:12:27;;;;;;;6.00;2.20;;;;;;;-145.18;100.00;46644.78;5001392;28;20042;-62
2023/09/25 04:14:53;;;;;;;4.40;2.60;;;;;;;-145.18;100.00;46648.69;5001807;28;20039;-62
2023/09/25 04:17:20;;;;;;;5.60;2.47;;;;;;;-145.18;100.00;46650.63;5011537;28;20057;-62
2023/09/25 04:19:46;;;;;;;7.10;2.33;;;;;;;-145.18;100.00;46648.69;4985729;28;20081;-62
2023/09/25 04:22:11;;;;;;;4.10;2.33;;;;;;;-145.18;100.00;46648.69;5009345;28;20045;-62
2023/09/25 04:24:37;;;;;;;5.90;2.37;;;;;;;-145.18;100.00;46648.69;5002242;28;20026;-62
2023/09/25 04:27:02;;;;;;;5.77;2.17;;;;;;;-145.18;100.00;46650.63;5011392;28;20017;-62
2023/09/25 04:29:28;;;;;;;4.63;2.70;;;;;;;-145.18;100.00;46646.72;5012631;28;20045;-62
2023/09/25 04:31:53;;;;;;;4.57;2.00;;;;;;;-145.18;100.00;46650.63;5011795;28;20049;-62
2023/09/25 04:34:19;;;;;;;3.30;2.20;;;;;;;-145.18;100.00;46650.63;5012328;28;20034;-62
2023/09/25 04:36:46;;;;;;;4.53;2.60;;;;;;;-145.18;100.00;46652.59;5012126;28;20030;-62
2023/09/25 04:39:12;;;;;;;5.30;2.40;;;;;;;-145.18;100.00;46648.69;5012091;28;20656;-62
2023/09/25 04:41:37;;;;;;;5.03;1.93;;;;;;;-145.18;100.00;46650.63;5010659;28;20053;-62
2023/09/25 04:44:04;;;;;;;4.27;2.33;;;;;;;-145.18;100.00;46650.63;5012241;28;20072;-62
2023/09/25 04:46:30;;;;;;;5.63;2.27;;;;;;;-145.18;100.00;46654.53;5011896;28;20083;-62
2023/09/25 04:48:56;;;;;;;3.67;2.13;;;;;;;-145.18;100.00;46658.44;5009564;28;20045;-62
2023/09/25 04:51:21;;;;;;;6.07;1.83;;;;;;;-145.18;100.00;46652.59;5011152;28;20029;-62
2023/09/25 04:53:47;;;;;;;5.10;2.37;;;;;;;-145.18;100.00;46656.50;5011254;28;20104;-62
2023/09/25 04:56:22;;;;;;;4.23;2.43;;;;;;;-145.18;100.00;46656.50;5008605;28;20032;-62
2023/09/25 04:58:47;;;;;;;4.57;2.03;;;;;;;-145.18;100.00;46654.53;5012583;28;20065;-62
2023/09/25 05:01:13;;;;;;;5.17;2.10;;;;;;;-145.18;100.00;46652.59;5010398;28;20061;-62
2023/09/25 05:03:40;;;;;;;5.63;2.33;;;;;;;-145.18;100.00;46656.50;5011750;28;20033;-59
2023/09/25 05:06:06;;;;;;;2.87;1.83;;;;;;;-145.18;100.00;46654.53;4993467;28;20560;-62
2023/09/25 05:08:32;;;;;;;4.83;2.10;;;;;;;-145.18;100.00;46654.53;5010058;28;20029;-62
2023/09/25 05:10:58;;;;;;;6.83;2.20;;;;;;;-145.18;100.00;46648.69;5012417;28;20390;-61
2023/09/25 05:13:23;;;;;;;5.13;2.40;;;;;;;-145.18;100.00;46656.50;5012597;28;20109;-62
2023/09/25 05:15:48;;;;;;;4.47;2.00;;;;;;;-145.18;100.00;46656.50;5008570;28;20113;-66
2023/09/25 05:18:14;;;;;;;5.03;2.40;;;;;;;-145.18;100.00;46654.53;5003970;28;20030;-66
2023/09/25 05:20:39;;;;;;;8.13;2.33;;;;;;;-145.18;100.00;46654.53;4997706;28;20037;-66
2023/09/25 05:23:05;;;;;;;3.03;1.73;;;;;;;-145.18;100.00;46654.53;5002882;28;20022;-66
2023/09/25 05:25:30;;;;;;;4.47;2.30;;;;;;;-145.18;100.00;46660.41;5001084;28;20479;-66
2023/09/25 05:27:57;;;;;;;7.83;2.07;;;;;;;-145.18;100.00;46658.44;4996545;28;20058;-66
2023/09/25 05:30:22;;;;;;;4.27;2.17;;;;;;;-145.18;100.00;46656.50;5004186;28;20482;-66
2023/09/25 05:32:52;;;;;;;3.20;2.00;;;;;;;-145.18;100.00;46656.50;5011052;28;20057;-66
2023/09/25 05:35:18;;;;;;;4.77;2.17;;;;;;;-145.18;100.00;46660.41;5011305;28;20108;-66
2023/09/25 05:37:48;;;;;;;5.90;2.33;;;;;;;-145.18;100.00;46658.44;5005892;28;20056;-66
2023/09/25 05:40:15;;;;;;;5.47;2.40;;;;;;;-145.18;100.00;46658.44;5007401;28;20022;-66
2023/09/25 05:42:42;;;;;;;5.90;2.40;;;;;;;-145.18;100.00;46656.50;5010862;28;20030;-66
2023/09/25 05:45:10;;;;;;;5.80;2.10;;;;;;;-145.18;100.00;46656.50;5010662;28;20074;-66
2023/09/25 05:47:35;;;;;;;4.83;1.90;;;;;;;-145.18;100.00;46652.59;5010447;28;20116;-66
2023/09/25 05:50:02;;;;;;;4.37;1.87;;;;;;;-145.18;100.00;46662.34;5010303;28;20454;-66
2023/09/25 05:52:28;;;;;;;4.93;1.93;;;;;;;-145.18;100.00;46658.44;5010976;28;20034;-66
2023/09/25 05:54:54;;;;;;;4.47;2.10;;;;;;;-145.18;100.00;46660.41;5007578;28;20049;-66
2023/09/25 05:57:20;;;;;;;4.13;1.80;;;;;;;-145.18;100.00;46658.44;5009411;28;20498;-66
2023/09/25 05:59:45;;;;;;;8.40;2.33;;;;;;;-145.18;100.00;46654.53;5010128;28;20033;-66
2023/09/25 06:02:10;;;;;;;5.70;2.10;;;;;;;-145.18;100.00;46656.50;5001863;28;20567;-66
2023/09/25 06:04:37;;;;;;;6.87;2.17;;;;;;;-145.18;100.00;46654.53;5004836;28;20030;-66
2023/09/25 06:07:03;;;;;;;4.23;2.07;;;;;;;-145.18;100.00;46662.34;5011500;28;20022;-66
2023/09/25 06:09:30;;;;;;;3.87;2.17;;;;;;;-145.18;100.00;46662.34;4998639;28;20482;-66
2023/09/25 06:11:55;;;;;;;3.67;2.00;;;;;;;-145.18;100.00;46658.44;5012101;28;20029;-66
2023/09/25 06:14:21;;;;;;;3.53;1.80;;;;;;;-145.18;100.00;46656.50;5011082;28;20041;-66
2023/09/25 06:16:50;;;;;;;3.13;1.83;;;;;;;-145.18;100.00;46660.41;5008750;28;20032;-66
2023/09/25 06:19:18;;;;;;;4.23;2.13;;;;;;;-145.18;100.00;46664.31;5014930;28;20034;-66
2023/09/25 06:21:44;;;;;;;5.53;1.93;;;;;;;-145.18;100.00;46660.41;5009380;28;20057;-66
2023/09/25 06:24:09;;;;;;;4.57;1.80;;;;;;;-145.18;100.00;46664.31;5013424;28;20461;-66
2023/09/25 06:26:41;;;;;;;5.73;2.03;;;;;;;-145.18;100.00;46656.50;5013947;28;20192;-62
2023/09/25 06:29:08;;;;;;;5.03;1.83;;;;;;;-145.18;100.00;46662.34;5014423;28;20026;-62
2023/09/25 06:31:36;;;;;;;4.30;2.20;;;;;;;-145.18;100.00;46664.31;4999463;28;20054;-62
2023/09/25 06:34:01;;;;;;;4.90;2.10;;;;;;;-145.18;100.00;46662.34;5014834;28;20125;-62
2023/09/25 06:36:26;;;;;;;4.17;2.13;;;;;;;-145.18;100.00;46668.22;5010053;28;20116;-62
2023/09/25 06:38:52;;;;;;;4.90;2.00;;;;;;;-145.18;100.00;46664.31;5011751;28;20025;-62
2023/09/25 06:41:17;;;;;;;2.70;1.87;;;;;;;-145.18;100.00;46660.41;5014264;28;20468;-62
2023/09/25 06:43:42;;;;;;;8.27;2.30;;;;;;;-145.18;100.00;46666.25;5013257;28;20080;-62
2023/09/25 06:46:08;;;;;;;4.00;2.10;;;;;;;-145.18;100.00;46664.31;5029334;28;20033;-62
2023/09/25 06:48:33;;;;;;;7.13;1.97;;;;;;;-145.18;100.00;46662.34;5012733;28;20045;-62
2023/09/25 06:50:59;;;;;;;6.73;2.03;;;;;;;-145.18;100.00;46660.41;5011989;28;20104;-62
2023/09/25 06:53:24;;;;;;;3.20;2.00;;;;;;;-145.18;100.00;46674.06;5011523;28;20037;-62
2023/09/25 06:55:50;;;;;;;3.93;1.73;;;;;;;-145.18;100.00;46666.25;5007434;28;20437;-62
2023/09/25 06:58:15;;;;;;;5.23;1.60;;;;;;;-145.18;100.00;46672.13;5014510;28;20445;-62
2023/09/25 07:00:44;;;;;;;5.60;2.27;;;;;;;-145.18;100.00;46676.03;5013642;28;20034;-62
2023/09/25 07:03:09;;;;;;;4.07;1.90;;;;;;;-145.18;100.00;46672.13;5006299;28;20769;-62
2023/09/25 07:05:34;;;;;;;5.13;1.97;;;;;;;-145.18;100.00;46668.22;5010270;28;20032;-62
2023/09/25 07:08:00;;;;;;;4.77;1.93;;;;;;;-145.18;100.00;46670.16;5013924;28;20540;-62
2023/09/25 07:10:25;;;;;;;4.50;1.73;;;;;;;-145.18;100.00;46672.13;5005062;28;20037;-62
2023/09/25 07:12:51;;;;;;;3.10;1.57;;;;;;;-145.18;100.00;46674.06;5012704;28;20029;-62
2023/09/25 07:15:18;;;;;;;6.33;1.63;;;;;;;-145.18;100.00;46672.13;5011605;28;20482;-62
2023/09/25 07:17:44;;;;;;;4.13;1.77;;;;;;;-145.18;100.00;46674.06;5013754;28;20054;-62
2023/09/25 07:20:09;;;;;;;5.90;2.03;;;;;;;-145.18;100.00;46681.88;5011756;28;20085;-62
2023/09/25 07:22:35;;;;;;;8.03;1.97;;;;;;;-145.18;100.00;46674.06;5013075;28;20518;-62
2023/09/25 07:25:00;;;;;;;4.10;1.63;;;;;;;-145.18;100.00;46677.97;5000865;28;20030;-62
2023/09/25 07:27:28;;;;;;;2.93;1.77;;;;;;;-145.18;100.00;46674.06;5013351;28;20418;-62
2023/09/25 07:29:53;;;;;;;3.87;1.70;;;;;;;-145.18;100.00;46679.94;5010101;28;20053;-62
2023/09/25 07:32:19;;;;;;;3.23;1.57;;;;;;;-145.18;100.00;46679.94;5013535;28;20054;-61
2023/09/25 07:34:45;;;;;;;3.70;2.03;;;;;;;-145.18;100.00;46674.06;5011692;28;20041;-65
2023/09/25 07:37:12;;;;;;;3.47;1.87;;;;;;;-145.18;100.00;46677.97;5013371;28;20048;-65
2023/09/25 07:39:40;;;;;;;3.67;1.70;;;;;;;-145.18;100.00;46679.94;5012520;28;20041;-65
2023/09/25 07:42:06;;;;;;;4.93;2.10;;;;;;;-145.18;100.00;46679.94;5013330;28;20030;-66
2023/09/25 07:44:34;;;;;;;4.60;2.17;;;;;;;-145.18;100.00;46679.94;5006298;28;20494;-66
2023/09/25 07:47:00;;;;;;;5.23;1.73;;;;;;;-145.18;100.00;46674.06;5013603;28;20072;-65
2023/09/25 07:49:29;;;;;;;3.67;2.03;;;;;;;-145.18;100.00;46674.06;5005997;28;20048;-65
2023/09/25 07:51:54;;;;;;;4.17;2.17;;;;;;;-145.18;100.00;46672.13;5005938;28;20045;-66
2023/09/25 07:54:20;;;;;;;3.50;1.87;;;;;;;-145.18;100.00;46662.34;5000712;28;20042;-65
2023/09/25 07:56:46;;;;;;;4.33;1.80;;;;;;;-145.18;100.00;46646.72;5008705;28;20080;-65
2023/09/25 07:59:13;;;;;;;5.63;1.83;;;;;;;-145.18;100.00;46642.81;5011368;28;20029;-65
2023/09/25 08:01:39;;;;;;;4.20;1.90;;;;;;;-145.18;100.00;46644.78;5002269;28;20116;-65
2023/09/25 08:04:05;;;;;;;3.40;1.83;;;;;;;-145.18;100.00;46636.94;5006306;28;20042;-65
2023/09/25 08:06:31;;;;;;;7.43;2.23;;;;;;;-145.18;100.00;46638.91;5012785;28;20481;-65
2023/09/25 08:08:57;;;;;;;6.50;2.00;;;;;;;-145.18;100.00;46615.47;5009200;28;20120;-65
2023/09/25 08:11:24;;;;;;;4.70;2.03;;;;;;;-145.18;100.00;46609.59;5010427;28;20068;-66
2023/09/25 08:13:50;;;;;;;5.40;1.77;;;;;;;-145.18;100.00;46623.28;5003918;28;20104;-65
2023/09/25 08:16:18;;;;;;;4.57;2.20;;;;;;;-145.18;100.00;46595.94;5004019;28;20034;-65
2023/09/25 08:18:43;;;;;;;8.37;2.80;;;;;;;-145.18;100.00;46576.41;5003328;28;20528;-65
2023/09/25 08:21:09;;;;;;;8.73;4.03;;;;;;;-145.18;100.00;46572.50;5012432;28;20026;-65
2023/09/25 08:23:35;;;;;;;6.97;3.30;;;;;;;-145.18;100.00;46570.53;5009622;28;20038;-65
2023/09/25 08:26:00;;;;;;;5.43;3.10;;;;;;;-145.18;100.00;46586.16;5011274;28;20406;-65
2023/09/25 08:28:26;;;;;;;5.13;2.63;;;;;;;-145.18;100.00;46588.13;5002257;28;20034;-66
2023/09/25 08:30:51;;;;;;;5.00;2.33;;;;;;;-145.18;100.00;46572.50;5007153;28;20030;-65
2023/09/25 08:33:17;;;;;;;6.17;2.23;;;;;;;-145.18;100.00;46568.59;5011846;28;20057;-65
2023/09/25 08:35:43;;;;;;;4.43;2.10;;;;;;;-145.18;100.00;46558.81;5006633;28;20062;-65
2023/09/25 08:38:08;;;;;;;3.23;2.00;;;;;;;-145.18;100.00;46564.69;5006788;28;20034;-65
2023/09/25 08:40:38;;;;;;;3.43;1.97;;;;;;;-145.18;100.00;46576.41;5008877;28;20037;-65
2023/09/25 08:43:05;;;;;;;4.80;1.80;;;;;;;-145.18;100.00;46549.06;5011312;28;20041;-65
2023/09/25 08:45:32;;;;;;;5.37;3.57;;;;;;;-145.18;100.00;46552.97;5004942;28;20076;-65
2023/09/25 08:47:57;;;;;;;7.70;4.17;;;;;;;-145.18;100.00;46549.06;5011483;28;20041;-65
2023/09/25 08:50:23;;;;;;;5.37;3.70;;;;;;;-145.18;100.00;46543.19;5002632;28;20034;-65
2023/09/25 08:52:48;;;;;;;5.03;2.33;;;;;;;-145.18;100.00;46545.16;5008901;28;20030;-65
2023/09/25 08:55:14;;;;;;;4.23;1.93;;;;;;;-145.18;100.00;46543.19;5001973;28;20066;-65
2023/09/25 08:57:40;;;;;;;4.23;2.10;;;;;;;-145.18;100.00;46554.91;5003183;28;20088;-66
2023/09/25 09:00:11;;;;;;;5.80;2.03;;;;;;;-145.18;100.00;46554.91;5011704;28;20037;-65
2023/09/25 09:02:40;;;;;;;3.73;1.90;;;;;;;-145.18;100.00;46552.97;5000680;28;20445;-65
2023/09/25 09:05:07;;;;;;;4.97;1.87;;;;;;;-145.18;100.00;46554.91;5005326;28;20029;-65
2023/09/25 09:07:33;;;;;;;5.70;1.97;;;;;;;-145.18;100.00;46564.69;5011354;28;20379;-65
2023/09/25 09:09:59;;;;;;;4.37;2.20;;;;;;;-145.18;100.00;46556.88;5007223;28;20026;-65
2023/09/25 09:12:24;;;;;;;3.43;2.30;;;;;;;-145.18;100.00;46566.63;5012027;28;20107;-65
2023/09/25 09:14:50;;;;;;;5.47;2.07;;;;;;;-145.18;100.00;46558.81;5011861;28;20096;-65
2023/09/25 09:17:15;;;;;;;5.00;2.13;;;;;;;-145.18;100.00;46562.72;5010525;28;20120;-65
2023/09/25 09:19:43;;;;;;;3.50;2.03;;;;;;;-145.18;100.00;46564.69;5011585;28;20028;-65
2023/09/25 09:22:09;;;;;;;6.23;1.80;;;;;;;-145.18;100.00;46566.63;5011551;28;20397;-65
2023/09/25 09:24:39;;;;;;;2.57;1.63;;;;;;;-145.18;100.00;46562.72;5011784;28;20026;-65
2023/09/25 09:27:07;;;;;;;4.87;1.73;;;;;;;-145.18;100.00;46572.50;5011828;28;20033;-65
2023/09/25 09:29:43;;;;;;;4.20;1.50;;;;;;;-145.18;100.00;46554.91;5011771;28;20041;-66
2023/09/25 09:32:10;;;;;;;2.77;1.50;;;;;;;-145.18;100.00;46564.69;5011578;28;20050;-66
2023/09/25 09:34:38;;;;;;;2.73;1.67;;;;;;;-145.18;100.00;46570.53;5010066;28;20029;-65
2023/09/25 09:37:08;;;;;;;3.77;1.67;;;;;;;-145.18;100.00;46566.63;5004570;28;20079;-65
2023/09/25 09:39:35;;;;;;;3.47;1.60;;;;;;;-145.18;100.00;46564.69;5011365;28;20025;-65
2023/09/25 09:42:05;;;;;;;3.53;1.57;;;;;;;-145.18;100.00;46558.81;5011152;28;20490;-66
2023/09/25 09:44:31;;;;;;;3.17;1.60;;;;;;;-145.18;100.00;46574.44;5011416;28;20034;-65
2023/09/25 09:47:02;;;;;;;3.93;1.90;;;;;;;-145.18;100.00;46566.63;5013946;28;20104;-65
2023/09/25 09:49:30;;;;;;;4.20;1.70;;;;;;;-145.18;100.00;46564.69;5010844;28;20515;-66
2023/09/25 09:51:57;;;;;;;2.13;1.50;;;;;;;-145.18;100.00;46570.53;5015631;28;20087;-66
2023/09/25 09:54:23;;;;;;;4.63;1.70;;;;;;;-145.18;100.00;46572.50;5015144;28;20026;-66
2023/09/25 09:56:48;;;;;;;2.87;1.77;;;;;;;-145.18;100.00;46572.50;5015193;28;20113;-66
2023/09/25 09:59:17;;;;;;;3.93;1.50;;;;;;;-145.18;100.00;46560.78;5013235;28;20172;-64
2023/09/25 10:01:45;;;;;;;4.50;1.93;;;;;;;-145.18;100.00;46580.31;5015096;28;20033;-65
2023/09/25 10:04:11;;;;;;;6.57;2.07;;;;;;;-145.18;100.00;46566.63;5014801;28;20025;-66
2023/09/25 10:07:04;;;;;;;4.80;1.80;;;;;;;-145.18;100.00;46582.25;4997094;28;20041;-66
2023/09/25 10:09:30;;;;;;;6.47;1.90;;;;;;;-145.18;100.00;46566.63;5015198;28;20389;-65
2023/09/25 10:11:56;;;;;;;5.93;1.60;;;;;;;-145.18;100.00;46564.69;5015137;28;20026;-64
2023/09/25 10:14:23;;;;;;;4.43;2.17;;;;;;;-145.18;100.00;46562.72;5014956;28;20125;-64
2023/09/25 10:17:04;;;;;;;8.40;2.10;;;;;;;-145.18;100.00;46564.69;5014778;28;20057;-66
2023/09/25 10:19:36;;;;;;;3.57;1.70;;;;;;;-145.18;100.00;46584.22;5014973;28;20032;-66
2023/09/25 10:22:22;;;;;;;5.73;2.03;;;;;;;-145.18;100.00;46617.41;5015249;28;20045;-66
2023/09/25 10:25:14;;;;;;;4.47;2.20;;;;;;;-145.18;100.00;46572.50;5012872;28;20021;-66
2023/09/25 10:27:43;;;;;;;3.17;1.90;;;;;;;-145.18;100.00;46597.88;5006802;28;20113;-64
2023/09/25 10:30:17;;;;;;;4.57;1.77;;;;;;;-145.18;100.00;46578.34;5014729;28;20026;-66
2023/09/25 10:32:50;;;;;;;3.70;1.90;;;;;;;-145.18;100.00;46629.13;5011405;28;20511;-65
2023/09/25 10:35:35;;;;;;;5.00;2.07;;;;;;;-145.18;100.00;46720.94;5014200;28;20026;-66
2023/09/25 10:38:10;;;;;;;4.33;1.83;;;;;;;-145.18;100.00;46810.81;5009971;28;20041;-65
2023/09/25 10:40:36;;;;;;;3.05;1.90;;;;;;;-145.18;100.00;47012.00;5014767;28;20049;-65
2023/09/25 10:43:03;;;;;;;3.40;1.53;;;;;;;-145.18;100.00;47203.47;5014379;28;20045;-66
2023/09/25 10:45:28;;;;;;;3.83;1.70;;;;;;;-145.18;100.00;47107.72;5013327;28;20434;-64
2023/09/25 10:47:53;;;;;;;3.50;1.90;;;;;;;-145.18;100.00;47193.69;5013423;28;20025;-66
2023/09/25 10:50:18;;;;;;;3.97;1.90;;;;;;;-145.18;100.00;47168.28;5012870;28;20038;-64
2023/09/25 10:52:44;;;;;;;4.20;1.80;;;;;;;-145.18;100.00;47148.75;5014054;28;20034;-66
2023/09/25 10:55:10;;;;;;;4.57;1.80;;;;;;;-145.18;100.00;47127.28;5013105;28;20034;-64
2023/09/25 10:57:36;;;;;;;6.57;2.10;;;;;;;-145.18;100.00;47096.00;5012969;28;20390;-66
2023/09/25 11:00:09;;;;;;;4.83;2.00;;;;;;;-145.18;100.00;47086.25;5014369;28;20030;-64
2023/09/25 11:02:34;;;;;;;3.47;2.00;;;;;;;-145.18;100.00;47080.38;5013805;28;20030;-66
2023/09/25 11:05:02;;;;;;;5.63;2.10;;;;;;;-145.18;100.00;47076.47;5014189;28;20030;-64
2023/09/25 11:07:28;;;;;;;4.20;2.00;;;;;;;-145.18;100.00;47076.47;5012810;28;20069;-64